Time;durP1;ratioP1;P1;durP2;ratioP2;P2;SDS_P1;SDS_P2;PMS_P1;PMS_P2;Temp;Humidity;BMP_temperature;BMP_pressure;BME280_temperature;BME280_humidity;BME280_pressure;Samples;Min_cycle;Max_cycle;Signal;HPM_P1;HPM_P2
2022/11/14 00:00:13;;;;;;;19.33;16.10;;;;;;;4.26;100.00;93863.81;5098063;28;20232;-71
2022/11/14 00:02:39;;;;;;;22.63;17.17;;;;;;;4.28;100.00;93874.72;5110811;28;20211;-73
2022/11/14 00:05:06;;;;;;;26.13;18.27;;;;;;;4.29;100.00;93870.34;5102594;28;20225;-72
2022/11/14 00:07:33;;;;;;;28.50;19.93;;;;;;;4.17;100.00;93867.63;5088276;28;20181;-72
2022/11/14 00:09:58;;;;;;;32.00;20.97;;;;;;;4.16;100.00;93860.09;5089031;28;20251;-72
2022/11/14 00:12:24;;;;;;;36.07;22.77;;;;;;;4.26;100.00;93866.41;5089058;28;20216;-73
2022/11/14 00:14:50;;;;;;;27.60;19.43;;;;;;;4.25;100.00;93864.03;5093849;28;20220;-73
2022/11/14 00:17:16;;;;;;;29.30;20.87;;;;;;;4.15;100.00;93869.66;5109044;28;20277;-73
2022/11/14 00:19:41;;;;;;;21.97;19.43;;;;;;;4.14;100.00;93868.06;5108502;28;20216;-73
2022/11/14 00:22:06;;;;;;;24.47;18.80;;;;;;;4.05;100.00;93873.69;5110377;28;20175;-72
2022/11/14 00:24:32;;;;;;;20.17;17.17;;;;;;;4.06;100.00;93865.72;5103206;28;20251;-73
2022/11/14 00:26:57;;;;;;;22.50;17.93;;;;;;;4.07;100.00;93867.31;5107877;28;20184;-73
2022/11/14 00:29:22;;;;;;;23.83;19.07;;;;;;;4.13;100.00;93871.66;5107131;28;20202;-72
2022/11/14 00:31:48;;;;;;;27.00;19.87;;;;;;;4.07;100.00;93871.69;5109908;28;20275;-73
2022/11/14 00:34:13;;;;;;;29.60;20.00;;;;;;;4.09;100.00;93860.16;5107091;28;20184;-72
2022/11/14 00:36:39;;;;;;;31.47;21.90;;;;;;;4.17;100.00;93867.63;5090336;28;20203;-72
2022/11/14 00:39:04;;;;;;;27.73;20.33;;;;;;;4.08;100.00;93858.56;5089179;28;20172;-73
2022/11/14 00:41:30;;;;;;;28.97;20.63;;;;;;;4.00;100.00;93863.97;5089261;28;20235;-73
2022/11/14 00:43:55;;;;;;;26.47;18.90;;;;;;;4.00;100.00;93863.97;5089505;28;20287;-72
2022/11/14 00:46:21;;;;;;;22.67;17.87;;;;;;;3.96;100.00;93862.81;5105795;28;20229;-72
2022/11/14 00:48:46;;;;;;;19.00;16.67;;;;;;;3.87;100.00;93850.34;5110729;28;20200;-72
2022/11/14 00:51:12;;;;;;;17.83;14.90;;;;;;;3.97;100.00;93874.72;5106031;28;20224;-72
2022/11/14 00:53:37;;;;;;;18.23;15.30;;;;;;;3.97;100.00;93868.78;5110239;28;20196;-73
2022/11/14 00:56:03;;;;;;;16.87;15.07;;;;;;;3.86;100.00;93828.88;5107558;28;20295;-72
2022/11/14 00:58:29;;;;;;;17.70;15.90;;;;;;;3.94;100.00;93851.88;5109107;28;20187;-73
2022/11/14 01:00:54;;;;;;;15.50;14.10;;;;;;;3.83;100.00;93855.13;5108123;28;20239;-72
2022/11/14 01:03:19;;;;;;;14.77;13.37;;;;;;;3.70;100.00;93837.13;5109155;28;20176;-73
2022/11/14 01:05:47;;;;;;;15.50;14.17;;;;;;;3.76;100.00;93849.22;5108121;28;20239;-72
2022/11/14 01:08:14;;;;;;;18.73;15.17;;;;;;;3.69;100.00;93837.34;5109110;28;20192;-73
2022/11/14 01:10:45;;;;;;;16.30;14.60;;;;;;;3.86;100.00;93853.94;5109336;28;20230;-72
2022/11/14 01:13:11;;;;;;;20.13;15.27;;;;;;;3.75;100.00;93839.09;5108976;28;20195;-73
2022/11/14 01:15:41;;;;;;;17.53;15.73;;;;;;;3.82;100.00;93838.06;5108349;28;20228;-72
2022/11/14 01:18:09;;;;;;;16.83;15.13;;;;;;;3.87;100.00;93853.72;5109124;28;20192;-73
2022/11/14 01:20:40;;;;;;;16.30;14.83;;;;;;;3.77;100.00;93861.13;5109627;28;20250;-72
2022/11/14 01:23:07;;;;;;;16.50;14.60;;;;;;;3.81;100.00;93857.13;5106295;28;20183;-73
2022/11/14 01:25:33;;;;;;;15.87;14.33;;;;;;;3.88;100.00;93847.53;5109064;28;20231;-73
2022/11/14 01:27:59;;;;;;;16.77;15.17;;;;;;;3.89;100.00;93841.38;5107828;28;20191;-72
2022/11/14 01:30:24;;;;;;;17.50;15.37;;;;;;;3.74;100.00;93830.53;5107046;28;20226;-72
2022/11/14 01:32:50;;;;;;;16.17;14.47;;;;;;;3.77;100.00;93837.88;5109103;28;20215;-73
2022/11/14 01:35:15;;;;;;;20.13;17.97;;;;;;;3.53;100.00;93799.06;5107833;28;20217;-72
2022/11/14 01:37:41;;;;;;;21.43;18.17;;;;;;;3.78;100.00;93834.31;5109047;28;20188;-72
2022/11/14 01:40:07;;;;;;;23.97;17.27;;;;;;;3.80;100.00;93829.72;5106417;28;20239;-73
2022/11/14 01:42:32;;;;;;;21.77;18.23;;;;;;;3.69;100.00;93825.19;5108907;28;20180;-73
2022/11/14 01:44:58;;;;;;;17.40;15.60;;;;;;;3.79;100.00;93825.56;5107340;28;20231;-73
2022/11/14 01:47:29;;;;;;;17.53;15.13;;;;;;;3.78;100.00;93823.97;5109821;28;20187;-72
2022/11/14 01:50:00;;;;;;;16.63;14.80;;;;;;;3.83;100.00;93823.34;5108234;28;20224;-72
2022/11/14 01:52:29;;;;;;;16.10;14.43;;;;;;;3.77;100.00;93817.22;5107899;28;20215;-72
2022/11/14 01:54:59;;;;;;;16.10;14.43;;;;;;;3.76;100.00;93818.22;5106734;28;20231;-73
2022/11/14 01:57:32;;;;;;;16.60;15.03;;;;;;;3.75;100.00;93821.78;5108780;28;20180;-72
2022/11/14 02:00:01;;;;;;;15.07;13.77;;;;;;;3.75;100.00;93811.44;5106035;28;20236;-72
2022/11/14 02:02:26;;;;;;;14.47;13.10;;;;;;;3.74;100.00;93812.47;5106939;28;20184;-72
2022/11/14 02:05:06;;;;;;;14.80;13.30;;;;;;;3.79;100.00;93812.63;5108140;28;20285;-71
2022/11/14 02:07:36;;;;;;;15.23;13.73;;;;;;;3.82;100.00;93808.84;5105102;28;20267;-72
2022/11/14 02:10:06;;;;;;;15.43;13.90;;;;;;;3.79;100.00;93794.56;5108026;28;20245;-73
2022/11/14 02:12:32;;;;;;;17.07;13.63;;;;;;;3.74;100.00;93773.72;5106816;28;20361;-73
2022/11/14 02:14:58;;;;;;;17.00;14.90;;;;;;;3.79;100.00;93781.66;5108496;28;20224;-72
2022/11/14 02:17:24;;;;;;;18.57;15.60;;;;;;;3.67;100.00;93774.78;5103147;28;20245;-73
2022/11/14 02:19:51;;;;;;;16.47;15.07;;;;;;;3.88;100.00;93798.47;5107612;28;20223;-72
2022/11/14 02:22:16;;;;;;;15.47;13.63;;;;;;;3.62;100.00;93749.56;5102479;28;20247;-71
2022/11/14 02:24:43;;;;;;;14.97;13.47;;;;;;;3.89;100.00;93802.63;5106681;28;20234;-73
2022/11/14 02:27:10;;;;;;;16.10;14.47;;;;;;;3.97;100.00;93799.78;5103909;28;20814;-72
2022/11/14 02:29:35;;;;;;;14.97;13.63;;;;;;;3.87;100.00;93806.44;5108624;28;20251;-71
2022/11/14 02:32:01;;;;;;;14.00;12.70;;;;;;;3.83;100.00;93803.47;5106868;28;20199;-72
2022/11/14 02:34:27;;;;;;;15.17;13.63;;;;;;;3.72;100.00;93801.53;5107033;28;20235;-72
2022/11/14 02:36:53;;;;;;;15.43;14.00;;;;;;;3.77;100.00;93809.47;5106539;28;20211;-71
2022/11/14 02:39:18;;;;;;;16.90;15.10;;;;;;;3.68;100.00;93795.22;5104250;28;20188;-72
2022/11/14 02:41:43;;;;;;;17.97;16.10;;;;;;;3.82;100.00;93795.91;5110174;28;20317;-72
2022/11/14 02:44:09;;;;;;;15.63;14.03;;;;;;;3.85;100.00;93796.31;5110572;28;20191;-72
2022/11/14 02:46:34;;;;;;;18.73;15.53;;;;;;;3.85;100.00;93796.31;5110889;28;20249;-72
2022/11/14 02:48:59;;;;;;;18.90;16.73;;;;;;;3.77;100.00;93793.97;5112961;28;20248;-72
2022/11/14 02:51:25;;;;;;;23.50;17.40;;;;;;;3.67;100.00;93788.47;5109385;28;20223;-72
2022/11/14 02:53:50;;;;;;;20.53;16.70;;;;;;;3.67;100.00;93791.06;5112297;28;20211;-72
2022/11/14 02:56:16;;;;;;;22.20;17.80;;;;;;;3.77;100.00;93788.81;5111940;28;20228;-72
2022/11/14 02:58:41;;;;;;;20.03;16.63;;;;;;;3.62;100.00;93790.09;5111879;28;20220;-72
2022/11/14 03:01:06;;;;;;;22.67;18.63;;;;;;;3.65;100.00;93784.50;5111051;28;20219;-72
2022/11/14 03:03:32;;;;;;;24.47;18.17;;;;;;;3.52;100.00;93775.03;5112577;28;20206;-72
2022/11/14 03:05:59;;;;;;;29.23;19.40;;;;;;;3.53;100.00;93770.69;5110179;28;20250;-72
2022/11/14 03:08:24;;;;;;;23.83;18.53;;;;;;;3.64;100.00;93785.50;5110569;28;20200;-72
2022/11/14 03:10:50;;;;;;;23.23;17.27;;;;;;;3.61;100.00;93768.63;5108756;28;20212;-72
2022/11/14 03:13:15;;;;;;;22.30;18.03;;;;;;;3.60;100.00;93784.34;5109124;28;20251;-72
2022/11/14 03:15:40;;;;;;;21.23;17.50;;;;;;;3.47;100.00;93782.59;5110137;28;20227;-72
2022/11/14 03:18:06;;;;;;;23.27;17.90;;;;;;;3.61;100.00;93789.28;5110838;28;20222;-72
2022/11/14 03:20:31;;;;;;;26.57;18.47;;;;;;;3.53;100.00;93771.47;5109865;28;20245;-72
2022/11/14 03:22:56;;;;;;;22.57;18.43;;;;;;;3.70;100.00;93793.22;5109325;28;20215;-72
2022/11/14 03:25:22;;;;;;;24.87;18.93;;;;;;;3.67;100.00;93782.53;5100261;28;20228;-72
2022/11/14 03:27:47;;;;;;;24.53;18.17;;;;;;;3.58;100.00;93787.13;5089730;28;20214;-72
2022/11/14 03:30:13;;;;;;;22.73;18.33;;;;;;;3.56;100.00;93781.41;5095720;28;20236;-72
2022/11/14 03:32:38;;;;;;;27.87;17.27;;;;;;;3.48;100.00;93773.09;5100274;28;20242;-72
2022/11/14 03:35:04;;;;;;;26.17;18.10;;;;;;;3.52;100.00;93782.78;5099832;28;20233;-72
2022/11/14 03:37:30;;;;;;;24.60;18.67;;;;;;;3.47;100.00;93774.88;5100814;28;20219;-72
2022/11/14 03:39:55;;;;;;;25.20;19.37;;;;;;;3.32;100.00;93738.22;5097134;28;20228;-72
2022/11/14 03:42:20;;;;;;;24.27;18.83;;;;;;;3.68;100.00;93773.75;5088644;28;20254;-72
2022/11/14 03:44:46;;;;;;;22.97;17.40;;;;;;;3.56;100.00;93765.91;5095651;28;20228;-72
2022/11/14 03:47:11;;;;;;;21.80;17.73;;;;;;;3.53;100.00;93774.06;5110565;28;20206;-72
2022/11/14 03:49:36;;;;;;;22.83;17.57;;;;;;;3.51;100.00;93773.47;5104571;28;20314;-72
2022/11/14 03:52:02;;;;;;;21.17;16.20;;;;;;;3.53;100.00;93783.59;5089934;28;20209;-72
2022/11/14 03:54:27;;;;;;;20.03;17.90;;;;;;;3.31;100.00;93765.03;5092544;28;20224;-72
2022/11/14 03:56:52;;;;;;;19.83;16.87;;;;;;;3.42;100.00;93774.72;5106671;28;20200;-72
2022/11/14 03:59:18;;;;;;;21.63;16.53;;;;;;;3.31;100.00;93752.91;5110441;28;20180;-71
2022/11/14 04:01:43;;;;;;;19.77;16.67;;;;;;;3.33;100.00;93751.94;5111374;28;20200;-72
2022/11/14 04:04:11;;;;;;;21.73;16.40;;;;;;;3.30;100.00;93758.28;5109743;28;20195;-72
2022/11/14 04:06:36;;;;;;;19.03;15.67;;;;;;;3.49;100.00;93783.19;5110984;28;20243;-72
2022/11/14 04:09:03;;;;;;;18.37;16.50;;;;;;;3.47;100.00;93772.28;5109009;28;20199;-72
2022/11/14 04:11:28;;;;;;;21.47;17.50;;;;;;;3.38;100.00;93763.22;5109447;28;20287;-72
2022/11/14 04:13:53;;;;;;;19.87;16.90;;;;;;;3.32;100.00;93766.63;5106982;28;20229;-72
2022/11/14 04:16:19;;;;;;;19.07;16.30;;;;;;;3.42;100.00;93766.16;5110210;28;20215;-72
2022/11/14 04:18:44;;;;;;;16.93;15.10;;;;;;;3.13;100.00;93724.44;5108771;28;20188;-72
2022/11/14 04:21:10;;;;;;;18.23;16.07;;;;;;;3.35;100.00;93773.16;5108928;28;20315;-72
2022/11/14 04:23:35;;;;;;;18.83;16.13;;;;;;;3.37;100.00;93776.31;5109738;28;20187;-72
2022/11/14 04:26:00;;;;;;;18.73;16.23;;;;;;;3.43;100.00;93765.97;5108213;28;20243;-72
2022/11/14 04:28:26;;;;;;;17.70;15.90;;;;;;;3.22;100.00;93761.13;5108991;28;20210;-72
2022/11/14 04:30:52;;;;;;;17.37;15.67;;;;;;;3.12;100.00;93751.25;5095121;28;20228;-72
2022/11/14 04:33:17;;;;;;;17.93;16.23;;;;;;;3.24;100.00;93751.38;5089940;28;20185;-72
2022/11/14 04:35:42;;;;;;;19.40;16.37;;;;;;;3.30;100.00;93760.84;5101236;28;20227;-72
2022/11/14 04:38:08;;;;;;;15.93;14.30;;;;;;;2.95;100.00;93713.22;5109679;28;20192;-72
2022/11/14 04:40:34;;;;;;;16.10;14.40;;;;;;;3.23;100.00;93755.75;5109318;28;20224;-72
2022/11/14 04:42:59;;;;;;;17.40;15.80;;;;;;;3.19;100.00;93743.47;5106011;28;20196;-72
2022/11/14 04:45:25;;;;;;;17.80;16.07;;;;;;;3.08;100.00;93708.00;5109938;28;20218;-72
2022/11/14 04:47:50;;;;;;;17.27;15.43;;;;;;;3.47;100.00;93764.53;5109052;28;20184;-73
2022/11/14 04:50:15;;;;;;;16.23;14.63;;;;;;;3.38;100.00;93768.38;5106724;28;20220;-72
2022/11/14 04:52:41;;;;;;;18.10;16.20;;;;;;;3.29;100.00;93754.13;5109572;28;20222;-72
2022/11/14 04:55:07;;;;;;;17.20;15.43;;;;;;;3.36;100.00;93765.22;5108651;28;20218;-71
2022/11/14 04:57:32;;;;;;;18.93;14.80;;;;;;;3.33;100.00;93757.91;5109306;28;20176;-70
2022/11/14 04:59:57;;;;;;;19.50;15.43;;;;;;;3.43;100.00;93753.06;5106075;28;20334;-71
2022/11/14 05:02:23;;;;;;;18.63;15.87;;;;;;;3.36;100.00;93744.56;5107937;28;20180;-71
2022/11/14 05:04:48;;;;;;;19.30;14.87;;;;;;;3.41;100.00;93756.84;5102887;28;20969;-71
2022/11/14 05:07:14;;;;;;;16.90;14.90;;;;;;;3.37;100.00;93748.72;5087674;28;20181;-70
2022/11/14 05:09:39;;;;;;;15.97;14.40;;;;;;;3.35;100.00;93758.47;5086028;28;20243;-70
2022/11/14 05:12:05;;;;;;;16.83;15.23;;;;;;;3.24;100.00;93733.31;5087980;28;20213;-69
2022/11/14 05:14:32;;;;;;;16.50;14.67;;;;;;;3.37;100.00;93753.09;5090773;28;20246;-72
2022/11/14 05:16:57;;;;;;;17.47;15.63;;;;;;;3.38;100.00;93760.63;5110178;28;20191;-69
2022/11/14 05:19:23;;;;;;;16.97;15.27;;;;;;;3.36;100.00;93765.22;5108286;28;20197;-69
2022/11/14 05:21:49;;;;;;;18.07;15.50;;;;;;;3.65;100.00;93762.06;5107730;28;20252;-70
2022/11/14 05:24:14;;;;;;;23.40;17.43;;;;;;;3.65;100.00;93769.00;5107857;28;20180;-69
2022/11/14 05:26:40;;;;;;;25.97;18.70;;;;;;;3.78;100.00;93772.31;5108675;28;20199;-69
2022/11/14 05:29:05;;;;;;;38.73;23.90;;;;;;;3.62;100.00;93765.06;5108056;28;20177;-68
2022/11/14 05:31:30;;;;;;;31.43;23.23;;;;;;;3.51;100.00;93757.97;5107237;28;20289;-71
2022/11/14 05:33:56;;;;;;;31.33;22.87;;;;;;;3.39;100.00;93757.06;5108171;28;20263;-71
2022/11/14 05:36:21;;;;;;;35.10;24.13;;;;;;;3.46;100.00;93769.91;5105571;28;20223;-66
2022/11/14 05:38:47;;;;;;;29.97;21.87;;;;;;;3.43;100.00;93772.91;5107389;28;20187;-68
2022/11/14 05:41:14;;;;;;;31.97;23.13;;;;;;;3.35;100.00;93768.78;5105873;28;20272;-66
2022/11/14 05:43:40;;;;;;;31.60;21.00;;;;;;;3.38;100.00;93770.94;5103162;28;20184;-66
2022/11/14 05:46:09;;;;;;;28.40;20.77;;;;;;;3.21;100.00;93767.25;5106168;28;20279;-67
2022/11/14 05:48:34;;;;;;;24.93;18.03;;;;;;;3.39;100.00;93772.56;5108158;28;20251;-66
2022/11/14 05:51:02;;;;;;;23.53;18.30;;;;;;;3.28;100.00;93768.03;5109001;28;20250;-67
2022/11/14 05:53:28;;;;;;;30.93;20.43;;;;;;;3.36;100.00;93774.75;5105916;28;20206;-68
2022/11/14 05:55:54;;;;;;;25.13;19.57;;;;;;;3.22;100.00;93774.03;5106356;28;20231;-67
2022/11/14 05:58:21;;;;;;;121.37;57.90;;;;;;;3.47;100.00;93782.59;5106112;28;20250;-67
2022/11/14 06:00:47;;;;;;;44.50;25.70;;;;;;;3.60;100.00;93779.97;5093783;28;20212;-67
2022/11/14 06:03:15;;;;;;;35.57;23.17;;;;;;;3.85;100.00;93770.47;5087592;28;20343;-67
2022/11/14 06:05:40;;;;;;;34.73;23.47;;;;;;;3.99;100.00;93779.72;5099931;28;20224;-67
2022/11/14 06:08:06;;;;;;;41.17;25.57;;;;;;;3.78;100.00;93774.13;5107820;28;20203;-67
2022/11/14 06:10:33;;;;;;;44.23;25.43;;;;;;;3.50;100.00;93771.09;5106302;28;20226;-68
2022/11/14 06:12:59;;;;;;;50.30;26.47;;;;;;;3.67;100.00;93780.75;5107793;28;20242;-66
2022/11/14 06:15:24;;;;;;;68.47;26.53;;;;;;;3.50;100.00;93789.97;5109159;28;20227;-66
2022/11/14 06:17:52;;;;;;;51.80;25.57;;;;;;;3.55;100.00;93795.28;5110576;28;20180;-67
2022/11/14 06:20:18;;;;;;;50.40;25.53;;;;;;;3.95;100.00;93796.66;5113425;28;20258;-67
2022/11/14 06:22:43;;;;;;;53.33;24.20;;;;;;;3.89;100.00;93784.53;5110788;28;20231;-67
2022/11/14 06:25:08;;;;;;;58.73;26.13;;;;;;;3.97;100.00;93792.03;5111681;28;20239;-67
2022/11/14 06:27:34;;;;;;;52.67;26.20;;;;;;;3.81;100.00;93790.00;5112748;28;20260;-68
2022/11/14 06:29:59;;;;;;;54.20;28.87;;;;;;;3.47;100.00;93792.94;5104872;28;20223;-67
2022/11/14 06:32:24;;;;;;;50.17;29.03;;;;;;;3.43;100.00;93791.78;5092303;28;20208;-67
2022/11/14 06:34:50;;;;;;;72.83;27.17;;;;;;;3.45;100.00;93789.78;5095416;28;20224;-67
2022/11/14 06:37:15;;;;;;;63.53;26.63;;;;;;;3.54;100.00;93798.88;5101332;28;20204;-67
2022/11/14 06:39:40;;;;;;;43.83;24.30;;;;;;;3.79;100.00;93791.97;5098190;28;20248;-67
2022/11/14 06:42:06;;;;;;;47.77;24.90;;;;;;;3.81;100.00;93790.00;5090681;28;20189;-67
2022/11/14 06:44:31;;;;;;;44.90;24.80;;;;;;;3.80;100.00;93787.63;5092978;28;20227;-66
2022/11/14 06:46:57;;;;;;;51.43;28.27;;;;;;;3.61;100.00;93786.72;5110627;28;20223;-67
2022/11/14 06:49:23;;;;;;;48.17;26.70;;;;;;;3.54;100.00;93782.59;5112911;28;20199;-67
2022/11/14 06:51:49;;;;;;;49.27;26.77;;;;;;;3.64;100.00;93782.94;5111483;28;20211;-67
2022/11/14 06:54:15;;;;;;;45.27;25.83;;;;;;;3.62;100.00;93777.97;5111776;28;20749;-67
2022/11/14 06:56:40;;;;;;;51.00;31.53;;;;;;;3.74;100.00;93775.50;5110352;28;20184;-67
2022/11/14 06:59:06;;;;;;;56.37;31.83;;;;;;;3.61;100.00;93767.88;5112158;28;20219;-67
2022/11/14 07:01:31;;;;;;;53.87;33.90;;;;;;;3.88;100.00;93770.06;5110837;28;20219;-67
2022/11/14 07:04:01;;;;;;;56.13;34.10;;;;;;;3.91;100.00;93774.81;5112321;28;20222;-67
2022/11/14 07:06:28;;;;;;;84.23;44.83;;;;;;;3.85;100.00;93778.22;5110312;28;20230;-68
2022/11/14 07:08:55;;;;;;;47.57;25.77;;;;;;;3.75;100.00;93772.72;5111905;28;20190;-67
2022/11/14 07:11:25;;;;;;;44.37;27.20;;;;;;;3.91;100.00;93774.00;5111867;28;20261;-67
2022/11/14 07:14:02;;;;;;;41.50;26.87;;;;;;;4.02;100.00;93773.31;5111466;28;20195;-67
2022/11/14 07:16:34;;;;;;;38.37;26.67;;;;;;;4.17;100.00;93774.59;5091796;28;20216;-67
2022/11/14 07:19:00;;;;;;;44.60;27.30;;;;;;;4.19;100.00;93777.78;5091104;28;20212;-67
2022/11/14 07:21:28;;;;;;;42.77;27.33;;;;;;;4.48;100.00;93777.13;5111656;28;20212;-67
2022/11/14 07:23:53;;;;;;;54.23;30.93;;;;;;;4.44;100.00;93775.97;5109330;28;20195;-67
2022/11/14 07:26:19;;;;;;;60.33;32.40;;;;;;;4.43;100.00;93778.78;5111597;28;20318;-67
2022/11/14 07:28:45;;;;;;;64.63;29.40;;;;;;;4.62;100.00;93777.81;5111667;28;20243;-67
2022/11/14 07:31:16;;;;;;;41.83;26.37;;;;;;;4.69;100.00;93766.38;5109989;28;20284;-66
2022/11/14 07:33:43;;;;;;;67.03;33.17;;;;;;;4.75;100.00;93781.06;5107658;28;20192;-67
2022/11/14 07:36:10;;;;;;;40.90;25.57;;;;;;;4.78;100.00;93783.22;5111500;28;20303;-67
2022/11/14 07:38:36;;;;;;;49.37;27.27;;;;;;;5.12;100.00;93774.06;5109368;28;20275;-67
2022/11/14 07:41:03;;;;;;;42.40;26.27;;;;;;;5.18;99.70;93764.66;5111523;28;20223;-66
2022/11/14 07:43:28;;;;;;;46.30;26.47;;;;;;;5.30;99.43;93762.91;5106678;28;20215;-68
2022/11/14 07:46:05;;;;;;;61.07;37.90;;;;;;;5.22;99.38;93768.38;5109078;28;20846;-67
2022/11/14 07:48:32;;;;;;;73.93;42.97;;;;;;;5.22;99.57;93763.22;5109525;28;20218;-67
2022/11/14 07:51:03;;;;;;;56.50;31.87;;;;;;;5.21;99.96;93762.44;5109171;28;20254;-67
2022/11/14 07:53:29;;;;;;;50.33;29.57;;;;;;;4.79;100.00;93764.09;5109108;28;20196;-67
2022/11/14 07:55:55;;;;;;;51.00;30.13;;;;;;;5.07;100.00;93765.38;5109622;28;20284;-67
2022/11/14 07:58:20;;;;;;;55.87;32.23;;;;;;;5.20;100.00;93760.06;5107976;28;20225;-67
2022/11/14 08:00:46;;;;;;;39.67;28.00;;;;;;;5.25;100.00;93763.56;5108351;28;20236;-67
2022/11/14 08:03:11;;;;;;;71.63;38.70;;;;;;;5.35;100.00;93757.88;5108402;28;20188;-67
2022/11/14 08:05:37;;;;;;;55.43;32.87;;;;;;;5.38;100.00;93765.22;5109715;28;20224;-67
2022/11/14 08:08:03;;;;;;;68.27;37.63;;;;;;;5.64;99.99;93775.22;5109349;28;20211;-65
2022/11/14 08:10:28;;;;;;;63.03;34.53;;;;;;;5.73;98.29;93766.94;5110487;28;20997;-66
2022/11/14 08:13:01;;;;;;;59.07;32.77;;;;;;;5.38;98.74;93760.03;5108699;28;20234;-67
2022/11/14 08:15:26;;;;;;;60.50;32.17;;;;;;;5.47;99.39;93769.06;5108811;28;20315;-67
2022/11/14 08:17:52;;;;;;;56.50;30.67;;;;;;;5.74;98.30;93759.97;5109057;28;20188;-67
2022/11/14 08:20:17;;;;;;;58.03;33.10;;;;;;;5.72;98.95;93759.38;5109617;28;20232;-66
2022/11/14 08:22:42;;;;;;;64.03;32.37;;;;;;;5.89;96.78;93752.59;5108865;28;20195;-66
2022/11/14 08:25:08;;;;;;;63.77;34.23;;;;;;;5.48;99.11;93757.72;5110376;28;20236;-66
2022/11/14 08:27:33;;;;;;;59.50;33.37;;;;;;;5.17;100.00;93714.69;5108569;28;20227;-72
2022/11/14 08:29:59;;;;;;;58.13;34.07;;;;;;;5.70;99.41;93758.81;5109817;28;20255;-70
2022/11/14 08:32:24;;;;;;;73.70;38.20;;;;;;;5.55;99.35;93727.34;5105780;28;20220;-69
2022/11/14 08:34:49;;;;;;;67.93;35.83;;;;;;;5.69;97.09;93739.91;5104921;28;20227;-70
2022/11/14 08:37:15;;;;;;;65.80;33.40;;;;;;;5.42;98.99;93724.91;5105996;28;20199;-69
2022/11/14 08:39:40;;;;;;;76.60;37.10;;;;;;;5.39;99.94;93740.88;5106293;28;20228;-69
2022/11/14 08:42:06;;;;;;;64.27;33.80;;;;;;;5.53;100.00;93755.25;5110061;28;20188;-69
2022/11/14 08:44:31;;;;;;;69.20;38.07;;;;;;;5.77;100.00;93759.50;5107400;28;20235;-67
2022/11/14 08:46:59;;;;;;;79.07;42.57;;;;;;;5.85;98.79;93749.63;5107244;28;20218;-69
2022/11/14 08:49:24;;;;;;;68.63;37.53;;;;;;;5.56;98.53;93690.06;5104974;28;20329;-70
2022/11/14 08:51:51;;;;;;;68.73;36.73;;;;;;;5.80;98.51;93731.38;5102286;28;20232;-71
2022/11/14 08:54:17;;;;;;;65.10;36.60;;;;;;;6.10;97.04;93746.91;5105941;28;20184;-72
2022/11/14 08:56:42;;;;;;;74.27;41.50;;;;;;;5.91;99.54;93745.38;5088717;28;20234;-69
2022/11/14 08:59:08;;;;;;;67.10;35.67;;;;;;;6.25;98.12;93744.66;5089857;28;20188;-71
2022/11/14 09:01:33;;;;;;;70.47;39.37;;;;;;;6.20;98.17;93731.56;5095244;28;20181;-70
2022/11/14 09:03:59;;;;;;;69.17;36.70;;;;;;;6.01;98.80;93748.22;5096885;28;20208;-69
2022/11/14 09:06:25;;;;;;;65.73;34.27;;;;;;;6.18;99.10;93724.00;5086760;28;20247;-70
2022/11/14 09:08:50;;;;;;;55.33;32.37;;;;;;;6.39;97.97;93731.25;5085908;28;20207;-69
2022/11/14 09:11:15;;;;;;;56.00;33.97;;;;;;;6.40;98.27;93727.63;5089090;28;20223;-68
2022/11/14 09:13:41;;;;;;;58.40;32.90;;;;;;;6.34;97.21;93683.66;5085966;28;20192;-71
2022/11/14 09:16:06;;;;;;;57.67;31.53;;;;;;;6.57;97.20;93717.38;5086272;28;20231;-69
2022/11/14 09:18:32;;;;;;;52.77;31.20;;;;;;;6.36;97.40;93715.34;5086600;28;20198;-71
2022/11/14 09:21:03;;;;;;;47.93;31.93;;;;;;;6.40;97.81;93711.28;5103117;28;20281;-70
2022/11/14 09:23:28;;;;;;;55.37;31.37;;;;;;;6.65;96.88;93717.03;5107434;28;20188;-72
2022/11/14 09:25:55;;;;;;;50.07;30.03;;;;;;;6.70;96.39;93709.34;5107004;28;20231;-72
2022/11/14 09:28:22;;;;;;;52.53;31.23;;;;;;;6.58;97.83;93713.78;5108493;28;20948;-70
2022/11/14 09:30:48;;;;;;;57.17;33.10;;;;;;;6.37;99.02;93706.53;5107883;28;20252;-71
2022/11/14 09:33:13;;;;;;;49.80;32.60;;;;;;;6.54;98.98;93710.03;5108124;28;20194;-71
2022/11/14 09:35:38;;;;;;;50.17;30.37;;;;;;;6.40;98.90;93713.88;5108615;28;20232;-71
2022/11/14 09:38:06;;;;;;;51.47;30.50;;;;;;;6.57;98.90;93708.81;5109037;28;20215;-71
2022/11/14 09:40:50;;;;;;;45.70;28.00;;;;;;;6.90;96.84;93714.16;5095518;28;20213;-67
2022/11/14 09:43:21;;;;;;;48.30;32.03;;;;;;;6.69;98.15;93710.38;5086857;28;20193;-67
2022/11/14 09:45:50;;;;;;;53.50;31.03;;;;;;;6.47;99.98;93709.38;5099593;28;20992;-67
2022/11/14 09:48:20;;;;;;;52.63;31.20;;;;;;;6.59;98.53;93694.59;5107118;28;20192;-66
2022/11/14 09:51:03;;;;;;;55.57;31.73;;;;;;;6.96;96.66;93710.66;5107041;28;20247;-70
2022/11/14 09:53:41;;;;;;;48.57;29.03;;;;;;;6.78;96.06;93667.47;5107219;28;20255;-67
2022/11/14 09:56:12;;;;;;;49.30;30.10;;;;;;;6.69;97.12;93694.00;5107356;28;20988;-67
2022/11/14 09:58:40;;;;;;;50.40;31.87;;;;;;;6.67;98.26;93696.84;5105975;28;20391;-68
2022/11/14 10:01:23;;;;;;;57.63;30.83;;;;;;;6.55;98.28;93689.06;5105260;28;20237;-68
2022/11/14 10:04:10;;;;;;;52.20;30.23;;;;;;;6.86;98.88;93690.50;5104238;28;20219;-68
2022/11/14 10:06:59;;;;;;;48.77;30.23;;;;;;;7.22;95.49;93684.94;5105278;28;20239;-68
2022/11/14 10:09:49;;;;;;;49.43;30.83;;;;;;;7.29;94.54;93680.41;5104943;28;20184;-68
2022/11/14 10:12:40;;;;;;;50.83;32.43;;;;;;;7.38;95.08;93671.22;5105417;28;20215;-68
2022/11/14 10:15:15;;;;;;;51.10;31.17;;;;;;;7.67;93.68;93667.56;5096862;28;20228;-68
2022/11/14 10:18:01;;;;;;;48.80;29.30;;;;;;;7.46;93.53;93659.66;5086094;28;20194;-68
2022/11/14 10:20:34;;;;;;;47.47;30.60;;;;;;;7.55;93.78;93664.25;5092351;28;20224;-68
2022/11/14 10:23:38;;;;;;;47.07;32.27;;;;;;;7.75;92.33;93646.41;5095778;28;20217;-68
2022/11/14 10:26:24;;;;;;;51.03;30.13;;;;;;;7.75;93.31;93664.59;5096125;28;20240;-68
2022/11/14 10:29:28;;;;;;;52.93;31.13;;;;;;;8.23;91.76;93653.69;5097400;28;20215;-68
2022/11/14 10:32:15;;;;;;;43.53;28.37;;;;;;;8.53;89.42;93650.72;5062030;28;20746;-68
2022/11/14 10:34:43;;;;;;;45.87;30.10;;;;;;;8.53;88.59;93650.72;5090305;28;20255;-68
2022/11/14 10:37:21;;;;;;;43.87;28.73;;;;;;;8.40;89.21;93646.63;5094541;28;20193;-68
2022/11/14 10:39:54;;;;;;;47.47;28.73;;;;;;;8.45;88.91;93649.28;5094677;28;20228;-67
2022/11/14 10:42:36;;;;;;;45.50;29.83;;;;;;;8.38;89.48;93638.28;5085792;28;20201;-68
2022/11/14 10:45:22;;;;;;;49.77;30.40;;;;;;;8.59;89.02;93637.50;5090280;28;20371;-68
2022/11/14 10:48:08;;;;;;;54.37;30.13;;;;;;;8.53;90.96;93633.25;5105365;28;20195;-68
2022/11/14 10:50:57;;;;;;;51.17;31.03;;;;;;;8.79;89.45;93634.38;5106847;28;20217;-68
2022/11/14 10:53:28;;;;;;;51.77;30.63;;;;;;;8.95;88.38;93636.91;5105369;28;20192;-70
2022/11/14 10:55:54;;;;;;;50.03;30.17;;;;;;;9.00;87.14;93623.97;5107443;28;20227;-71
2022/11/14 10:58:20;;;;;;;50.90;31.90;;;;;;;9.02;88.20;93619.31;5105533;28;20606;-72
2022/11/14 11:00:46;;;;;;;50.37;30.73;;;;;;;9.17;86.47;93627.28;5107053;28;20327;-71
2022/11/14 11:03:11;;;;;;;51.40;30.73;;;;;;;9.35;85.02;93618.34;5111781;28;20188;-71
2022/11/14 11:05:53;;;;;;;55.10;32.17;;;;;;;9.44;83.83;93624.69;5111617;28;20760;-71
2022/11/14 11:11:30;;;;;;;45.27;30.97;;;;;;;9.09;86.70;93600.88;5110854;28;20259;-70
2022/11/14 11:13:58;;;;;;;54.53;31.50;;;;;;;9.27;87.36;93613.56;5110051;28;20210;-71
2022/11/14 11:16:26;;;;;;;55.03;34.23;;;;;;;9.39;87.93;93619.41;5110413;28;20216;-71
2022/11/14 11:18:51;;;;;;;53.63;32.43;;;;;;;9.31;86.07;93614.63;5111114;28;20209;-72
2022/11/14 11:21:22;;;;;;;58.83;34.37;;;;;;;9.50;85.07;93613.25;5110246;28;20256;-71
2022/11/14 11:23:47;;;;;;;52.87;32.90;;;;;;;9.62;83.10;93616.50;5110333;28;20196;-71